Time;durP1;ratioP1;P1;durP2;ratioP2;P2;SDS_P1;SDS_P2;PMS_P1;PMS_P2;Temp;Humidity;BMP_temperature;BMP_pressure;BME280_temperature;BME280_humidity;BME280_pressure;Samples;Min_cycle;Max_cycle;Signal;HPM_P1;HPM_P2
2022/08/04 00:00:29;;;;;;;20.02;9.05;;;22.10;99.90;;;;;;3061269;19;20025;-78
2022/08/04 00:01:35;;;;;;;20.95;8.85;;;22.10;99.90;;;;;;3062343;19;20471;-78
2022/08/04 00:02:51;;;;;;;20.38;9.07;;;22.10;99.90;;;;;;3061129;19;20015;-78
2022/08/04 00:04:02;;;;;;;20.23;8.05;;;20.10;99.90;;;;;;3062345;19;20018;-79
2022/08/04 00:05:05;;;;;;;20.95;9.13;;;22.00;99.90;;;;;;3062920;19;20405;-79
2022/08/04 00:06:20;;;;;;;21.05;9.02;;;22.00;99.90;;;;;;3062379;19;20026;-78
2022/08/04 00:07:30;;;;;;;19.27;8.95;;;22.10;99.90;;;;;;3064774;19;20027;-79
2022/08/04 00:08:46;;;;;;;22.25;9.68;;;22.10;99.90;;;;;;3059993;19;20014;-78
2022/08/04 00:09:51;;;;;;;19.63;8.85;;;22.10;99.90;;;;;;3059815;19;20525;-79
2022/08/04 00:10:57;;;;;;;18.23;8.55;;;22.00;99.90;;;;;;3059740;19;20015;-79
2022/08/04 00:12:01;;;;;;;19.63;9.73;;;22.00;99.90;;;;;;3059686;19;20006;-79
2022/08/04 00:13:06;;;;;;;24.48;9.10;;;22.00;99.90;;;;;;3059359;19;20039;-79
2022/08/04 00:14:12;;;;;;;22.58;9.48;;;22.10;99.90;;;;;;3060573;19;20494;-79
2022/08/04 00:15:18;;;;;;;21.35;8.82;;;22.10;99.90;;;;;;3059230;19;20013;-79
2022/08/04 00:16:22;;;;;;;18.25;9.05;;;22.00;99.90;;;;;;3059537;19;20035;-78
2022/08/04 00:17:32;;;;;;;22.50;9.57;;;22.00;99.90;;;;;;3059160;19;20007;-79
2022/08/04 00:18:39;;;;;;;17.92;8.63;;;21.80;99.90;;;;;;3059465;19;20018;-78
2022/08/04 00:19:46;;;;;;;22.45;8.75;;;21.90;99.90;;;;;;3060047;19;20421;-79
2022/08/04 00:20:47;;;;;;;17.25;8.85;;;21.70;99.90;;;;;;3058646;19;20018;-78
2022/08/04 00:22:01;;;;;;;23.77;9.13;;;21.70;99.90;;;;;;3059180;19;20030;-79
2022/08/04 00:23:03;;;;;;;18.90;9.02;;;21.90;99.90;;;;;;3058883;19;20018;-79
2022/08/04 00:24:09;;;;;;;22.00;8.75;;;21.90;99.90;;;;;;3060362;19;20090;-79
2022/08/04 00:25:10;;;;;;;20.70;9.18;;;21.70;99.90;;;;;;3058739;19;20357;-78
2022/08/04 00:26:17;;;;;;;19.30;9.60;;;21.80;99.90;;;;;;3059951;19;20010;-78
2022/08/04 00:27:19;;;;;;;23.20;8.95;;;22.20;99.90;;;;;;3059233;19;20037;-78
2022/08/04 00:28:23;;;;;;;17.95;9.32;;;21.80;99.90;;;;;;3059419;19;20011;-79
2022/08/04 00:29:25;;;;;;;23.75;9.88;;;22.10;99.90;;;;;;3058969;19;20014;-80
2022/08/04 00:30:30;;;;;;;19.33;8.60;;;21.90;99.90;;;;;;3058857;19;20025;-79
2022/08/04 00:31:31;;;;;;;23.00;9.20;;;21.80;99.90;;;;;;3059233;19;20078;-79
2022/08/04 00:32:35;;;;;;;21.33;9.10;;;21.80;99.90;;;;;;3059082;19;20015;-78
2022/08/04 00:33:37;;;;;;;20.10;9.18;;;21.70;99.90;;;;;;3058385;19;20367;-79
2022/08/04 00:34:42;;;;;;;22.38;9.43;;;21.80;99.90;;;;;;3060032;19;20081;-79
2022/08/04 00:35:45;;;;;;;26.05;10.02;;;21.80;99.90;;;;;;3058967;19;20015;-79
2022/08/04 00:36:49;;;;;;;24.42;9.60;;;21.80;99.90;;;;;;3059769;19;20010;-79
2022/08/04 00:37:56;;;;;;;23.58;9.35;;;21.70;99.90;;;;;;3058987;19;20046;-79
2022/08/04 00:38:59;;;;;;;24.08;8.85;;;21.80;99.90;;;;;;3058746;19;20010;-79
2022/08/04 00:40:06;;;;;;;22.38;10.05;;;21.60;99.90;;;;;;3059039;19;20002;-78
2022/08/04 00:41:28;;;;;;;24.45;9.77;;;21.60;99.90;;;;;;3060015;19;20010;-79
2022/08/04 00:42:42;;;;;;;24.20;9.27;;;21.70;99.90;;;;;;3060896;19;20022;-79
2022/08/04 00:43:58;;;;;;;22.73;9.30;;;21.70;99.90;;;;;;3058483;19;20014;-79
2022/08/04 00:45:33;;;;;;;21.17;10.02;;;21.70;99.90;;;;;;3059394;19;19998;-78
2022/08/04 00:46:48;;;;;;;21.38;9.63;;;21.60;99.90;;;;;;3058818;19;20010;-79
2022/08/04 00:48:03;;;;;;;25.38;9.77;;;21.40;99.90;;;;;;3058897;19;20015;-79
2022/08/04 00:49:46;;;;;;;20.13;9.30;;;21.60;99.90;;;;;;3059195;19;20031;-79
2022/08/04 00:50:58;;;;;;;23.17;9.10;;;21.50;99.90;;;;;;3058386;19;20030;-78
2022/08/04 00:52:11;;;;;;;22.48;10.40;;;21.40;99.90;;;;;;3059474;19;20082;-79
2022/08/04 00:53:31;;;;;;;21.98;10.13;;;21.40;99.90;;;;;;3059460;19;20047;-78
2022/08/04 00:54:53;;;;;;;22.33;9.65;;;21.50;99.90;;;;;;3059487;19;20372;-77
2022/08/04 00:56:20;;;;;;;20.42;9.38;;;21.30;99.90;;;;;;3057539;19;20024;-78
2022/08/04 00:57:34;;;;;;;21.13;9.93;;;21.50;99.90;;;;;;3055761;19;20082;-77
2022/08/04 00:58:45;;;;;;;22.30;9.27;;;21.50;99.90;;;;;;3058890;19;20029;-77
2022/08/04 01:00:00;;;;;;;22.92;10.13;;;21.40;99.90;;;;;;3059490;19;20014;-78
2022/08/04 01:01:05;;;;;;;19.90;9.40;;;21.30;99.90;;;;;;3058844;19;20014;-80
2022/08/04 01:02:15;;;;;;;19.73;9.57;;;21.40;99.90;;;;;;3058707;19;19999;-78
2022/08/04 01:03:32;;;;;;;25.48;10.23;;;21.30;99.90;;;;;;3058694;19;20011;-79
2022/08/04 01:04:48;;;;;;;22.30;9.60;;;21.40;99.90;;;;;;3059835;19;20022;-78
2022/08/04 01:06:02;;;;;;;22.52;10.68;;;21.60;99.90;;;;;;3059805;19;20027;-78
2022/08/04 01:07:17;;;;;;;19.98;9.27;;;21.40;99.90;;;;;;3058945;19;20022;-77
2022/08/04 01:08:42;;;;;;;20.52;9.88;;;21.30;99.90;;;;;;3058390;19;20045;-77
2022/08/04 01:09:53;;;;;;;21.88;10.23;;;21.50;99.90;;;;;;3058992;19;20006;-78
2022/08/04 01:11:06;;;;;;;21.77;9.70;;;21.20;99.90;;;;;;3058719;19;20019;-78
2022/08/04 01:12:26;;;;;;;23.73;10.82;;;21.20;99.90;;;;;;3058540;19;20014;-78
2022/08/04 01:13:56;;;;;;;20.65;9.95;;;21.30;99.90;;;;;;3059823;19;20082;-78
2022/08/04 01:15:04;;;;;;;21.25;10.85;;;21.20;99.90;;;;;;3057458;19;20503;-77
2022/08/04 01:16:10;;;;;;;25.55;9.80;;;21.00;99.90;;;;;;3060402;19;20014;-78
2022/08/04 01:17:20;;;;;;;23.15;10.68;;;21.10;99.90;;;;;;3059496;19;20022;-77
2022/08/04 01:18:29;;;;;;;17.73;9.55;;;21.10;99.90;;;;;;3058876;19;20011;-78
2022/08/04 01:20:01;;;;;;;22.27;9.48;;;21.20;99.90;;;;;;3058914;19;20015;-78
2022/08/04 01:21:56;;;;;;;20.80;9.82;;;21.30;99.90;;;;;;3056783;19;20010;-78
2022/08/04 01:23:30;;;;;;;24.02;10.68;;;21.10;99.90;;;;;;3056595;19;20546;-78
2022/08/04 01:25:01;;;;;;;23.17;10.40;;;21.00;99.90;;;;;;3057833;19;20019;-77
2022/08/04 01:26:37;;;;;;;28.10;10.23;;;21.10;99.90;;;;;;3058534;19;20087;-78
2022/08/04 01:27:52;;;;;;;20.63;10.18;;;21.10;99.90;;;;;;3057643;19;20007;-77
2022/08/04 01:29:08;;;;;;;23.88;9.85;;;21.00;99.90;;;;;;3058354;19;20532;-77
2022/08/04 01:30:12;;;;;;;19.52;10.32;;;21.20;99.90;;;;;;3059072;19;20018;-77
2022/08/04 01:31:20;;;;;;;17.38;10.30;;;21.10;99.90;;;;;;3058620;19;20011;-78
2022/08/04 01:32:33;;;;;;;21.05;10.07;;;20.90;99.90;;;;;;3059999;19;20019;-77
2022/08/04 01:33:37;;;;;;;21.83;9.88;;;20.90;99.90;;;;;;3058624;19;20014;-77
2022/08/04 01:34:52;;;;;;;22.63;10.25;;;21.10;99.90;;;;;;3060121;19;20007;-77
2022/08/04 01:35:56;;;;;;;21.92;10.18;;;20.90;99.90;;;;;;3058863;19;20019;-77
2022/08/04 01:37:05;;;;;;;23.67;9.93;;;20.90;99.90;;;;;;3058894;19;20010;-77
2022/08/04 01:38:14;;;;;;;25.23;10.65;;;21.00;99.90;;;;;;3058932;19;20033;-77
2022/08/04 01:40:38;;;;;;;19.30;10.20;;;21.00;99.90;;;;;;3058617;19;20476;-77
2022/08/04 01:41:40;;;;;;;21.80;10.63;;;20.80;99.90;;;;;;3058648;19;20483;-76
2022/08/04 01:42:46;;;;;;;22.63;11.38;;;20.80;99.90;;;;;;3058277;19;20028;-76
2022/08/04 01:43:47;;;;;;;18.83;10.20;;;21.00;99.90;;;;;;3058143;19;20018;-78
2022/08/04 01:44:54;;;;;;;;;;;20.90;99.90;;;;;;3059524;19;20043;-78
2022/08/04 01:45:59;;;;;;;23.40;10.10;;;21.00;99.90;;;;;;3058357;19;19943;-77
2022/08/04 01:47:04;;;;;;;25.45;10.82;;;20.80;99.90;;;;;;3058299;19;20482;-77
2022/08/04 01:48:07;;;;;;;23.75;10.70;;;20.80;99.90;;;;;;3058223;19;20022;-77
2022/08/04 01:49:13;;;;;;;22.27;10.65;;;20.90;99.90;;;;;;3058252;19;20025;-77
2022/08/04 01:50:14;;;;;;;19.75;10.00;;;20.80;99.90;;;;;;3058003;19;20090;-77
2022/08/04 01:51:21;;;;;;;23.45;10.38;;;20.80;99.90;;;;;;3058931;19;20025;-77
2022/08/04 01:52:24;;;;;;;26.83;10.38;;;20.50;99.90;;;;;;3057934;19;20021;-77
2022/08/04 01:53:34;;;;;;;25.42;10.38;;;20.90;99.90;;;;;;3058973;19;20038;-77
2022/08/04 01:54:40;;;;;;;24.85;10.23;;;20.70;99.90;;;;;;3058701;19;20079;-77
2022/08/04 01:55:44;;;;;;;22.45;10.50;;;20.90;99.90;;;;;;3057160;19;20005;-77
2022/08/04 01:56:49;;;;;;;22.25;10.00;;;20.90;99.90;;;;;;3057976;19;20070;-77
2022/08/04 01:57:54;;;;;;;26.30;9.98;;;20.80;99.90;;;;;;3058084;19;20027;-77
2022/08/04 01:58:56;;;;;;;22.25;9.77;;;20.80;99.90;;;;;;3057882;19;20388;-77
2022/08/04 02:00:06;;;;;;;25.17;11.20;;;20.90;99.90;;;;;;3058245;19;20082;-77
2022/08/04 02:01:08;;;;;;;23.95;10.70;;;20.70;99.90;;;;;;3057787;19;20014;-76
2022/08/04 02:02:13;;;;;;;20.02;10.05;;;20.70;99.90;;;;;;3058110;19;20031;-77
2022/08/04 02:03:16;;;;;;;23.27;10.13;;;20.80;99.90;;;;;;3058030;19;20038;-77
2022/08/04 02:04:22;;;;;;;23.60;10.98;;;20.70;99.90;;;;;;3058203;19;20014;-78
2022/08/04 02:05:25;;;;;;;18.60;10.40;;;20.50;99.90;;;;;;3058060;19;20013;-78
2022/08/04 02:06:34;;;;;;;19.13;10.27;;;20.60;99.90;;;;;;3059678;19;20022;-77
2022/08/04 02:07:46;;;;;;;25.98;10.40;;;20.60;99.90;;;;;;3058216;19;20010;-78
2022/08/04 02:08:58;;;;;;;23.10;10.32;;;20.80;99.90;;;;;;3057881;19;20007;-77
2022/08/04 02:10:04;;;;;;;23.33;10.20;;;20.70;99.90;;;;;;3058126;19;20551;-77
2022/08/04 02:11:16;;;;;;;23.38;10.68;;;20.80;99.90;;;;;;3057756;19;20524;-78
2022/08/04 02:12:21;;;;;;;;;;;20.50;99.90;;;;;;3058719;19;20408;-77
2022/08/04 02:13:29;;;;;;;20.00;9.30;;;20.50;99.90;;;;;;3059356;19;20252;-77
2022/08/04 02:14:44;;;;;;;23.45;9.80;;;20.50;99.90;;;;;;3058427;19;20022;-78
2022/08/04 02:15:59;;;;;;;20.15;9.70;;;20.50;99.90;;;;;;3056316;19;20022;-78
2022/08/04 02:17:02;;;;;;;18.50;9.15;;;20.60;99.90;;;;;;3057664;19;20508;-77
2022/08/04 02:18:12;;;;;;;20.15;9.73;;;20.50;99.90;;;;;;3058102;19;20017;-77
2022/08/04 02:19:29;;;;;;;21.08;10.13;;;20.30;99.90;;;;;;3057748;19;20010;-77
2022/08/04 02:20:36;;;;;;;22.30;10.15;;;20.50;99.90;;;;;;3057523;19;20419;-78
2022/08/04 02:21:40;;;;;;;18.98;10.07;;;20.60;99.90;;;;;;3057746;19;20074;-78
2022/08/04 02:22:53;;;;;;;23.08;10.88;;;20.40;99.90;;;;;;3057873;19;20010;-78
2022/08/04 02:24:01;;;;;;;22.65;9.93;;;20.40;99.90;;;;;;3058976;19;20013;-77
2022/08/04 02:25:10;;;;;;;20.42;10.27;;;20.50;99.90;;;;;;3061424;19;20487;-78
2022/08/04 02:26:16;;;;;;;20.75;10.23;;;20.50;99.90;;;;;;3060975;19;20014;-77
2022/08/04 02:27:30;;;;;;;22.13;10.45;;;20.40;99.90;;;;;;3060793;19;20020;-78
2022/08/04 02:28:39;;;;;;;20.33;10.70;;;20.40;99.90;;;;;;3060864;19;20007;-77
2022/08/04 02:29:48;;;;;;;20.42;10.85;;;20.30;99.90;;;;;;3061320;19;20018;-77
2022/08/04 02:31:04;;;;;;;20.50;10.73;;;20.30;99.90;;;;;;3060742;19;20019;-77
2022/08/04 02:32:14;;;;;;;24.70;11.23;;;20.40;99.90;;;;;;3059431;19;20014;-77
2022/08/04 02:33:24;;;;;;;21.88;10.07;;;20.40;99.90;;;;;;3060675;19;20015;-77
2022/08/04 02:34:31;;;;;;;21.83;10.43;;;20.40;99.90;;;;;;3059828;19;20042;-76
2022/08/04 02:35:39;;;;;;;20.48;10.13;;;20.30;99.90;;;;;;3059227;19;20006;-77
2022/08/04 02:36:45;;;;;;;22.17;10.73;;;20.30;99.90;;;;;;3060642;19;20005;-76
2022/08/04 02:37:48;;;;;;;20.55;10.18;;;20.10;99.90;;;;;;3060201;19;20006;-77
2022/08/04 02:38:57;;;;;;;16.50;9.70;;;20.30;99.90;;;;;;3060518;19;20007;-77
2022/08/04 02:40:00;;;;;;;21.42;10.15;;;20.40;99.90;;;;;;3060429;19;20477;-76
2022/08/04 02:41:07;;;;;;;19.20;10.32;;;20.20;99.90;;;;;;3060608;19;19998;-76
2022/08/04 02:42:11;;;;;;;23.35;10.48;;;20.30;99.90;;;;;;3061699;19;20039;-77
2022/08/04 02:43:16;;;;;;;18.80;10.13;;;20.20;99.90;;;;;;3060760;19;19998;-76
2022/08/04 02:44:22;;;;;;;21.63;10.93;;;20.50;99.90;;;;;;3059947;19;20011;-76
2022/08/04 02:45:27;;;;;;;20.90;11.10;;;20.20;99.90;;;;;;3060486;19;20002;-76
2022/08/04 02:46:33;;;;;;;21.92;10.25;;;20.40;99.90;;;;;;3061746;19;20018;-76
2022/08/04 02:47:37;;;;;;;18.83;10.00;;;20.30;99.90;;;;;;3060538;19;20086;-76
2022/08/04 02:48:42;;;;;;;21.60;10.75;;;20.30;99.90;;;;;;3060392;19;20039;-77
2022/08/04 02:49:48;;;;;;;20.83;10.30;;;20.30;99.90;;;;;;3060619;19;20070;-77
2022/08/04 02:50:52;;;;;;;20.10;10.50;;;20.20;99.90;;;;;;3060098;19;20015;-77
2022/08/04 02:51:58;;;;;;;23.00;10.68;;;20.30;99.90;;;;;;3061315;19;20014;-76
2022/08/04 02:53:02;;;;;;;18.83;9.95;;;20.10;99.90;;;;;;3060080;19;20468;-76
2022/08/04 02:54:07;;;;;;;20.40;10.30;;;20.10;99.90;;;;;;3060773;19;20018;-76
2022/08/04 02:55:12;;;;;;;21.20;10.15;;;20.20;99.90;;;;;;3059686;19;20030;-77
2022/08/04 02:56:20;;;;;;;21.02;10.32;;;20.20;99.90;;;;;;3061362;19;20018;-76
2022/08/04 02:57:26;;;;;;;17.42;10.25;;;20.20;99.90;;;;;;3061713;19;20050;-77
2022/08/04 02:58:35;;;;;;;22.23;9.93;;;20.30;99.90;;;;;;3060532;19;20015;-77
2022/08/04 02:59:56;;;;;;;20.80;10.50;;;20.20;99.90;;;;;;3062207;19;20103;-77
2022/08/04 03:01:00;;;;;;;20.17;10.02;;;20.10;99.90;;;;;;3060270;19;20034;-77
2022/08/04 03:02:04;;;;;;;21.90;11.07;;;20.10;99.90;;;;;;3060723;19;20376;-77
2022/08/04 03:03:21;;;;;;;21.95;10.35;;;20.00;99.90;;;;;;3060891;19;20010;-77
2022/08/04 03:04:41;;;;;;;25.77;11.77;;;20.00;99.90;;;;;;3062004;19;20011;-77
2022/08/04 03:06:03;;;;;;;21.55;10.95;;;20.00;99.90;;;;;;3061883;19;20022;-76
2022/08/04 03:07:35;;;;;;;24.85;10.75;;;20.00;99.90;;;;;;3063799;19;20010;-77
2022/08/04 03:09:10;;;;;;;24.25;11.35;;;20.00;99.90;;;;;;3060544;19;20014;-77
2022/08/04 03:10:55;;;;;;;19.13;10.65;;;19.80;99.90;;;;;;3061810;19;20006;-77
2022/08/04 03:12:13;;;;;;;21.08;9.85;;;19.90;99.90;;;;;;3060464;19;20022;-77
2022/08/04 03:13:46;;;;;;;21.80;10.63;;;20.00;99.90;;;;;;3062984;19;20638;-77
2022/08/04 03:15:29;;;;;;;22.55;10.30;;;19.80;99.90;;;;;;3062753;19;20015;-77
2022/08/04 03:17:20;;;;;;;25.02;10.20;;;19.70;99.90;;;;;;3060362;19;20487;-77
2022/08/04 03:19:00;;;;;;;20.33;10.30;;;19.80;99.90;;;;;;3058947;19;20010;-77
2022/08/04 03:20:46;;;;;;;20.27;9.90;;;19.80;99.90;;;;;;3059778;19;20015;-77
2022/08/04 03:22:23;;;;;;;19.60;9.80;;;19.70;99.90;;;;;;3059648;19;20042;-77
2022/08/04 03:23:48;;;;;;;17.67;9.90;;;19.70;99.90;;;;;;3060312;19;20006;-76
2022/08/04 03:25:22;;;;;;;16.38;9.80;;;19.60;99.90;;;;;;3060483;19;20014;-77
2022/08/04 03:26:58;;;;;;;21.48;10.10;;;19.70;99.90;;;;;;3059599;19;20024;-77
2022/08/04 03:28:32;;;;;;;21.17;10.32;;;19.70;99.90;;;;;;3061450;19;20025;-78
2022/08/04 03:29:56;;;;;;;20.40;10.57;;;19.70;99.90;;;;;;3060065;19;20345;-77
2022/08/04 03:31:38;;;;;;;18.67;10.48;;;19.70;99.90;;;;;;3060040;19;20103;-76
2022/08/04 03:33:19;;;;;;;19.55;10.10;;;19.60;99.90;;;;;;3057797;19;20014;-77
2022/08/04 03:34:40;;;;;;;18.15;9.48;;;19.60;99.90;;;;;;3059358;19;20018;-76
2022/08/04 03:36:06;;;;;;;19.48;9.93;;;19.60;99.90;;;;;;3057437;19;20143;-77
2022/08/04 03:37:36;;;;;;;19.63;9.93;;;19.40;99.90;;;;;;3059904;19;20507;-76
2022/08/04 03:39:08;;;;;;;17.33;8.95;;;19.50;99.90;;;;;;3059441;19;20512;-77
2022/08/04 03:40:36;;;;;;;16.58;8.77;;;19.60;99.90;;;;;;3059821;19;20081;-77
2022/08/04 03:42:07;;;;;;;15.23;7.95;;;19.50;99.90;;;;;;3061621;19;20019;-76
2022/08/04 03:43:49;;;;;;;16.05;7.72;;;19.50;99.90;;;;;;3059785;19;20041;-77
2022/08/04 03:45:11;;;;;;;13.20;8.27;;;19.50;99.90;;;;;;3058340;19;20018;-77
2022/08/04 03:46:49;;;;;;;15.80;8.77;;;19.60;99.90;;;;;;3059911;19;20002;-76
2022/08/04 03:48:32;;;;;;;12.60;7.55;;;19.50;99.90;;;;;;3058143;19;20418;-76
2022/08/04 03:50:17;;;;;;;15.02;8.48;;;19.50;99.90;;;;;;3058178;19;20368;-77
2022/08/04 03:53:29;;;;;;;15.38;8.40;;;19.40;99.90;;;;;;3059666;19;20006;-76
2022/08/04 03:55:12;;;;;;;16.58;9.10;;;19.40;99.90;;;;;;3059543;19;20021;-76
2022/08/04 03:56:30;;;;;;;15.18;9.27;;;19.70;99.90;;;;;;3058945;19;20023;-76
2022/08/04 03:57:57;;;;;;;18.25;9.18;;;19.30;99.90;;;;;;3058966;19;20019;-77
2022/08/04 03:59:21;;;;;;;18.50;9.63;;;19.30;99.90;;;;;;3060051;19;20014;-76
2022/08/04 04:00:32;;;;;;;22.02;10.20;;;19.30;99.90;;;;;;3059396;19;20349;-77
2022/08/04 04:02:15;;;;;;;17.63;9.88;;;19.60;99.90;;;;;;3059169;19;20495;-76
2022/08/04 04:03:55;;;;;;;21.42;10.15;;;19.40;99.90;;;;;;3059611;19;20512;-77
2022/08/04 04:05:31;;;;;;;21.63;11.25;;;19.40;99.90;;;;;;3060429;19;20018;-77
2022/08/04 04:07:04;;;;;;;20.33;11.18;;;19.50;99.90;;;;;;3059344;19;20006;-76
2022/08/04 04:08:25;;;;;;;19.40;10.55;;;19.30;99.90;;;;;;3059696;19;20015;-76
2022/08/04 04:10:08;;;;;;;16.25;10.02;;;19.20;99.90;;;;;;3059412;19;20018;-77
2022/08/04 04:11:53;;;;;;;20.20;10.50;;;19.40;99.90;;;;;;3059514;19;20014;-76
2022/08/04 04:13:24;;;;;;;21.55;10.93;;;19.40;99.90;;;;;;3060116;19;20030;-76
2022/08/04 04:14:52;;;;;;;20.95;11.50;;;19.50;99.90;;;;;;3058825;19;20014;-77
2022/08/04 04:16:17;;;;;;;19.60;11.25;;;19.50;99.90;;;;;;3058765;19;20003;-76
2022/08/04 04:17:47;;;;;;;20.23;10.93;;;19.50;99.90;;;;;;3059627;19;20003;-78
2022/08/04 04:19:22;;;;;;;17.17;10.98;;;19.60;99.90;;;;;;3058938;19;20031;-77
2022/08/04 04:20:59;;;;;;;24.45;11.25;;;19.40;99.90;;;;;;3058676;19;20018;-76
2022/08/04 04:22:21;;;;;;;19.65;10.95;;;19.50;99.90;;;;;;3060939;19;20022;-77
2022/08/04 04:23:36;;;;;;;16.70;10.80;;;19.70;99.90;;;;;;3059050;19;20010;-77
2022/08/04 04:25:10;;;;;;;21.52;10.38;;;19.40;99.90;;;;;;3060549;19;20010;-76
2022/08/04 04:26:39;;;;;;;18.23;10.38;;;19.50;99.90;;;;;;3059894;19;20074;-77
2022/08/04 04:27:58;;;;;;;20.02;11.07;;;19.60;99.90;;;;;;3058891;19;20320;-77
2022/08/04 04:29:23;;;;;;;19.15;11.07;;;19.50;99.90;;;;;;3058090;19;20023;-77
2022/08/04 04:30:33;;;;;;;20.90;11.77;;;19.70;99.90;;;;;;3058652;19;20349;-77
2022/08/04 04:31:56;;;;;;;19.88;10.73;;;19.50;99.90;;;;;;3058698;19;20022;-77
2022/08/04 04:33:16;;;;;;;21.23;10.40;;;19.50;99.90;;;;;;3059052;19;20030;-77
2022/08/04 04:34:34;;;;;;;17.23;10.77;;;19.50;99.90;;;;;;3059336;19;20574;-77
2022/08/04 04:35:44;;;;;;;21.05;10.90;;;19.60;99.90;;;;;;3060761;19;20022;-77
2022/08/04 04:36:57;;;;;;;20.08;10.57;;;19.70;99.90;;;;;;3059846;19;20291;-77
2022/08/04 04:38:27;;;;;;;25.27;12.02;;;19.70;99.90;;;;;;3059827;19;20488;-77
2022/08/04 04:39:38;;;;;;;23.73;11.30;;;19.70;99.90;;;;;;3058114;19;20102;-76
2022/08/04 04:41:01;;;;;;;21.52;10.73;;;19.70;99.90;;;;;;3058231;19;20347;-76
2022/08/04 04:42:37;;;;;;;20.73;11.10;;;19.80;99.90;;;;;;3058801;19;20527;-76
2022/08/04 04:44:15;;;;;;;23.42;12.50;;;19.80;99.90;;;;;;3057856;19;20014;-76
2022/08/04 04:45:33;;;;;;;25.40;11.60;;;19.80;99.90;;;;;;3058825;19;20060;-76
2022/08/04 04:46:41;;;;;;;21.55;12.25;;;19.80;99.90;;;;;;3058149;19;20039;-76
2022/08/04 04:47:56;;;;;;;23.13;11.20;;;19.80;99.90;;;;;;3058744;19;20361;-77
2022/08/04 04:49:04;;;;;;;22.52;12.05;;;19.90;99.90;;;;;;3058628;19;20011;-77
2022/08/04 04:50:19;;;;;;;23.00;11.68;;;19.60;99.90;;;;;;3058618;19;20022;-76
2022/08/04 04:51:27;;;;;;;21.33;12.20;;;19.80;99.90;;;;;;3058820;19;20014;-76
2022/08/04 04:52:39;;;;;;;22.67;11.48;;;19.90;99.90;;;;;;3058958;19;20014;-76
2022/08/04 04:53:54;;;;;;;24.23;11.48;;;19.80;99.90;;;;;;3058658;19;20033;-77
2022/08/04 04:55:03;;;;;;;21.63;12.57;;;19.60;99.90;;;;;;3059723;19;20010;-76
2022/08/04 04:56:16;;;;;;;24.63;11.75;;;19.70;99.90;;;;;;3058221;19;20011;-76
2022/08/04 04:57:19;;;;;;;20.27;11.98;;;20.00;99.90;;;;;;3058446;19;20003;-77
2022/08/04 04:58:25;;;;;;;24.58;12.55;;;19.90;99.90;;;;;;3059754;19;20011;-77
2022/08/04 04:59:32;;;;;;;26.05;12.60;;;19.90;99.90;;;;;;3058522;19;20015;-76
2022/08/04 05:01:02;;;;;;;26.92;12.75;;;19.90;99.90;;;;;;3059146;19;20468;-77
2022/08/04 05:02:29;;;;;;;20.65;11.93;;;20.00;99.90;;;;;;3058325;19;20468;-77
2022/08/04 05:03:56;;;;;;;23.38;12.45;;;20.10;99.90;;;;;;3058724;19;20002;-77
2022/08/04 05:05:11;;;;;;;20.40;12.55;;;20.10;99.90;;;;;;3058635;19;20015;-77
2022/08/04 05:06:30;;;;;;;19.75;12.55;;;20.10;99.90;;;;;;3058513;19;20078;-76
2022/08/04 05:07:57;;;;;;;23.27;12.40;;;20.20;99.90;;;;;;3058583;19;20380;-77
2022/08/04 05:09:27;;;;;;;24.00;12.05;;;20.00;99.90;;;;;;3058864;19;20039;-76
2022/08/04 05:10:47;;;;;;;20.88;12.15;;;20.10;99.90;;;;;;3058543;19;20034;-77
2022/08/04 05:12:23;;;;;;;24.38;12.48;;;20.10;99.90;;;;;;3058434;19;20532;-77
2022/08/04 05:13:35;;;;;;;21.85;11.93;;;20.10;99.90;;;;;;3058026;19;20015;-77
2022/08/04 05:14:45;;;;;;;23.33;12.75;;;20.30;99.90;;;;;;3058382;19;20015;-77
2022/08/04 05:15:52;;;;;;;24.08;12.35;;;20.20;99.90;;;;;;3058462;19;20022;-77
2022/08/04 05:17:02;;;;;;;23.48;12.13;;;20.20;99.90;;;;;;3057707;19;20018;-77
2022/08/04 05:18:09;;;;;;;23.55;12.57;;;20.20;99.90;;;;;;3058803;19;20027;-76
2022/08/04 05:19:21;;;;;;;25.65;12.77;;;20.40;99.90;;;;;;3058406;19;20336;-76
2022/08/04 05:20:30;;;;;;;19.90;11.13;;;20.20;99.90;;;;;;3058237;19;20014;-76
2022/08/04 05:21:41;;;;;;;21.83;12.05;;;20.40;99.90;;;;;;3058539;19;20013;-77
2022/08/04 05:22:54;;;;;;;22.52;12.07;;;20.20;99.90;;;;;;3059727;19;20077;-77
2022/08/04 05:23:59;;;;;;;21.98;12.10;;;20.30;99.90;;;;;;3058531;19;20015;-77
2022/08/04 05:25:07;;;;;;;22.08;13.00;;;20.50;99.90;;;;;;3057694;19;20018;-76
2022/08/04 05:26:12;;;;;;;27.65;12.32;;;20.40;99.90;;;;;;3058620;19;20031;-76
2022/08/04 05:27:20;;;;;;;25.25;12.27;;;20.50;99.90;;;;;;3058006;19;20010;-76
2022/08/04 05:28:27;;;;;;;20.13;12.23;;;20.50;99.90;;;;;;3058453;19;20009;-77
2022/08/04 05:29:36;;;;;;;21.92;12.00;;;20.60;99.90;;;;;;3057923;19;20503;-77
2022/08/04 05:30:47;;;;;;;20.88;12.40;;;20.50;99.90;;;;;;3058481;19;20018;-77
2022/08/04 05:31:54;;;;;;;23.73;12.05;;;20.60;99.90;;;;;;3058219;19;20007;-76
2022/08/04 05:33:02;;;;;;;22.50;11.57;;;20.50;99.90;;;;;;3058344;19;20527;-77
2022/08/04 05:34:08;;;;;;;19.38;11.10;;;20.60;99.90;;;;;;3058418;19;20506;-77
2022/08/04 05:35:17;;;;;;;28.63;12.02;;;20.60;99.90;;;;;;3058141;19;20035;-78
2022/08/04 05:36:21;;;;;;;24.83;11.73;;;20.70;99.90;;;;;;3057223;19;20518;-78
2022/08/04 05:37:29;;;;;;;23.85;11.82;;;20.90;99.90;;;;;;3057272;19;20082;-77
2022/08/04 05:38:35;;;;;;;23.30;11.50;;;20.70;99.90;;;;;;3058471;19;20017;-77
2022/08/04 05:39:44;;;;;;;23.60;12.68;;;20.70;99.90;;;;;;3058048;19;20476;-77
2022/08/04 05:40:48;;;;;;;22.15;12.70;;;20.70;99.90;;;;;;3058599;19;20011;-77
2022/08/04 05:41:50;;;;;;;23.33;12.55;;;20.60;99.90;;;;;;3058041;19;20022;-76
2022/08/04 05:42:55;;;;;;;;;;;20.70;99.90;;;;;;3059908;19;20225;-77
2022/08/04 05:43:58;;;;;;;21.90;12.13;;;20.50;99.90;;;;;;3058035;19;19970;-77
2022/08/04 05:45:03;;;;;;;25.80;13.07;;;20.70;99.90;;;;;;3058810;19;20010;-78
2022/08/04 05:46:05;;;;;;;25.80;12.43;;;20.80;99.90;;;;;;3058285;19;20022;-77
2022/08/04 05:47:10;;;;;;;18.02;11.02;;;20.80;99.90;;;;;;3058045;19;20010;-77
2022/08/04 05:48:12;;;;;;;21.00;11.38;;;20.70;99.90;;;;;;3058031;19;20364;-77
2022/08/04 05:49:18;;;;;;;25.52;12.02;;;19.10;99.90;;;;;;3058571;19;20070;-78
2022/08/04 05:50:23;;;;;;;24.67;11.57;;;20.70;99.90;;;;;;3058890;19;20018;-77
2022/08/04 05:51:25;;;;;;;23.17;12.43;;;20.70;99.90;;;;;;3058181;19;20384;-77
2022/08/04 05:52:33;;;;;;;22.65;11.77;;;20.70;99.90;;;;;;3057521;19;20077;-77
2022/08/04 05:53:37;;;;;;;22.83;11.93;;;20.90;99.90;;;;;;3059775;19;20417;-77
2022/08/04 05:54:39;;;;;;;25.20;11.57;;;20.90;99.90;;;;;;3057798;19;20373;-78
2022/08/04 05:55:43;;;;;;;21.52;11.10;;;21.00;99.90;;;;;;3058259;19;20413;-78
2022/08/04 05:56:47;;;;;;;20.58;11.30;;;20.90;99.90;;;;;;3057559;19;20022;-77
2022/08/04 05:57:50;;;;;;;19.10;11.68;;;20.90;99.90;;;;;;3057332;19;20011;-78
2022/08/04 05:58:56;;;;;;;19.00;11.02;;;21.00;99.90;;;;;;3059565;19;19999;-77
2022/08/04 06:00:03;;;;;;;23.77;11.77;;;21.10;99.90;;;;;;3061169;19;20382;-77
2022/08/04 06:01:07;;;;;;;22.20;11.25;;;20.90;99.90;;;;;;3062211;19;20471;-76
2022/08/04 06:02:12;;;;;;;18.40;10.70;;;21.00;99.90;;;;;;3062321;19;20016;-78
2022/08/04 06:03:16;;;;;;;19.83;10.65;;;21.00;99.90;;;;;;3061838;19;20011;-77
2022/08/04 06:04:20;;;;;;;21.17;10.70;;;20.90;99.90;;;;;;3061105;19;20018;-78
2022/08/04 06:05:25;;;;;;;18.45;12.07;;;21.10;99.90;;;;;;3061180;19;20354;-77
2022/08/04 06:06:28;;;;;;;19.50;10.48;;;21.10;99.90;;;;;;3061203;19;20010;-79
2022/08/04 06:07:35;;;;;;;19.83;10.77;;;21.00;99.90;;;;;;3062195;19;20011;-78
2022/08/04 06:08:37;;;;;;;20.40;10.15;;;21.30;99.90;;;;;;3060968;19;20368;-78
2022/08/04 06:09:41;;;;;;;20.38;11.18;;;21.00;99.90;;;;;;3062115;19;20054;-78
2022/08/04 06:10:45;;;;;;;23.05;11.10;;;21.10;99.90;;;;;;3063573;19;20003;-79
2022/08/04 06:11:51;;;;;;;19.58;10.43;;;21.10;99.90;;;;;;3062942;19;20356;-87
2022/08/04 06:12:59;;;;;;;20.27;10.50;;;21.20;99.90;;;;;;3062619;19;20011;-85
2022/08/04 06:14:09;;;;;;;20.38;9.70;;;21.00;99.90;;;;;;3069688;19;20010;-81
2022/08/04 06:15:16;;;;;;;19.17;10.43;;;21.40;99.90;;;;;;3069043;19;20010;-81
2022/08/04 06:16:21;;;;;;;22.85;10.77;;;21.30;99.90;;;;;;3069145;19;20011;-85
2022/08/04 06:17:33;;;;;;;16.60;10.27;;;21.10;99.90;;;;;;3066419;19;20325;-79
2022/08/04 06:18:36;;;;;;;22.02;10.50;;;21.30;99.90;;;;;;3070190;19;20014;-89
2022/08/04 06:19:43;;;;;;;20.38;10.65;;;21.20;99.90;;;;;;3069861;19;20015;-85